sensor_id;sensor_type;location;lat;lon;timestamp;P1;durP1;ratioP1;P2;durP2;ratioP2
46507;SDS011;32223;53.654;10.014;2022-12-10T00:01:45;52.63;;;19.25;;
46507;SDS011;32223;53.654;10.014;2022-12-10T00:04:12;48.80;;;22.05;;
46507;SDS011;32223;53.654;10.014;2022-12-10T00:06:38;56.00;;;21.23;;
46507;SDS011;32223;53.654;10.014;2022-12-10T00:09:06;47.85;;;19.23;;
46507;SDS011;32223;53.654;10.014;2022-12-10T00:11:34;42.55;;;18.92;;
46507;SDS011;32223;53.654;10.014;2022-12-10T00:14:00;48.63;;;18.85;;
46507;SDS011;32223;53.654;10.014;2022-12-10T00:16:26;53.28;;;20.20;;
46507;SDS011;32223;53.654;10.014;2022-12-10T00:18:53;46.05;;;18.10;;
46507;SDS011;32223;53.654;10.014;2022-12-10T00:21:23;45.65;;;18.50;;
46507;SDS011;32223;53.654;10.014;2022-12-10T00:23:50;40.03;;;18.15;;
46507;SDS011;32223;53.654;10.014;2022-12-10T00:26:20;47.95;;;19.75;;
46507;SDS011;32223;53.654;10.014;2022-12-10T00:28:46;47.60;;;19.38;;
46507;SDS011;32223;53.654;10.014;2022-12-10T00:31:14;44.22;;;19.17;;
46507;SDS011;32223;53.654;10.014;2022-12-10T00:33:41;48.65;;;20.25;;
46507;SDS011;32223;53.654;10.014;2022-12-10T00:36:08;45.35;;;20.20;;
46507;SDS011;32223;53.654;10.014;2022-12-10T00:38:39;50.13;;;18.65;;
46507;SDS011;32223;53.654;10.014;2022-12-10T00:41:06;49.05;;;18.85;;
46507;SDS011;32223;53.654;10.014;2022-12-10T00:43:32;43.33;;;18.70;;
46507;SDS011;32223;53.654;10.014;2022-12-10T00:45:58;47.20;;;20.13;;
46507;SDS011;32223;53.654;10.014;2022-12-10T00:48:24;43.70;;;17.55;;
46507;SDS011;32223;53.654;10.014;2022-12-10T00:53:30;45.85;;;18.92;;
46507;SDS011;32223;53.654;10.014;2022-12-10T00:55:57;52.45;;;18.77;;
46507;SDS011;32223;53.654;10.014;2022-12-10T00:58:23;39.58;;;19.58;;
46507;SDS011;32223;53.654;10.014;2022-12-10T01:00:51;42.25;;;18.23;;
46507;SDS011;32223;53.654;10.014;2022-12-10T01:03:17;41.40;;;17.40;;
46507;SDS011;32223;53.654;10.014;2022-12-10T01:05:42;41.70;;;16.77;;
46507;SDS011;32223;53.654;10.014;2022-12-10T01:08:08;39.10;;;16.83;;
46507;SDS011;32223;53.654;10.014;2022-12-10T01:10:34;36.22;;;17.02;;
46507;SDS011;32223;53.654;10.014;2022-12-10T01:12:59;39.38;;;16.50;;
46507;SDS011;32223;53.654;10.014;2022-12-10T01:15:25;33.17;;;15.80;;
46507;SDS011;32223;53.654;10.014;2022-12-10T01:17:51;41.28;;;16.77;;
46507;SDS011;32223;53.654;10.014;2022-12-10T01:20:16;31.88;;;15.57;;
46507;SDS011;32223;53.654;10.014;2022-12-10T01:22:42;32.40;;;14.65;;
46507;SDS011;32223;53.654;10.014;2022-12-10T01:25:08;35.20;;;16.98;;
46507;SDS011;32223;53.654;10.014;2022-12-10T01:27:33;35.75;;;15.93;;
46507;SDS011;32223;53.654;10.014;2022-12-10T01:29:59;35.05;;;13.63;;
46507;SDS011;32223;53.654;10.014;2022-12-10T01:32:24;34.67;;;15.25;;
46507;SDS011;32223;53.654;10.014;2022-12-10T01:34:50;38.20;;;15.85;;
46507;SDS011;32223;53.654;10.014;2022-12-10T01:37:16;34.30;;;15.32;;
46507;SDS011;32223;53.654;10.014;2022-12-10T01:39:41;35.05;;;15.10;;
46507;SDS011;32223;53.654;10.014;2022-12-10T01:42:08;32.72;;;14.48;;
46507;SDS011;32223;53.654;10.014;2022-12-10T01:47:05;26.17;;;12.38;;
46507;SDS011;32223;53.654;10.014;2022-12-10T01:49:32;25.85;;;11.35;;
46507;SDS011;32223;53.654;10.014;2022-12-10T01:51:59;17.63;;;10.13;;
46507;SDS011;32223;53.654;10.014;2022-12-10T01:54:26;22.23;;;9.68;;
46507;SDS011;32223;53.654;10.014;2022-12-10T01:57:00;21.83;;;9.57;;
46507;SDS011;32223;53.654;10.014;2022-12-10T01:59:36;15.00;;;8.52;;
46507;SDS011;32223;53.654;10.014;2022-12-10T02:04:33;22.23;;;10.70;;
46507;SDS011;32223;53.654;10.014;2022-12-10T02:09:48;17.90;;;8.85;;
46507;SDS011;32223;53.654;10.014;2022-12-10T02:15:27;19.77;;;9.18;;
46507;SDS011;32223;53.654;10.014;2022-12-10T02:20:36;21.48;;;9.15;;
46507;SDS011;32223;53.654;10.014;2022-12-10T02:23:11;19.48;;;9.60;;
46507;SDS011;32223;53.654;10.014;2022-12-10T02:25:51;19.85;;;9.93;;
46507;SDS011;32223;53.654;10.014;2022-12-10T02:31:52;16.48;;;8.73;;
46507;SDS011;32223;53.654;10.014;2022-12-10T02:34:18;14.20;;;7.75;;
46507;SDS011;32223;53.654;10.014;2022-12-10T02:36:48;16.05;;;8.30;;
46507;SDS011;32223;53.654;10.014;2022-12-10T02:39:18;18.23;;;8.70;;
46507;SDS011;32223;53.654;10.014;2022-12-10T02:41:53;16.52;;;8.15;;
46507;SDS011;32223;53.654;10.014;2022-12-10T02:44:19;16.67;;;8.38;;
46507;SDS011;32223;53.654;10.014;2022-12-10T02:46:48;14.88;;;7.50;;
46507;SDS011;32223;53.654;10.014;2022-12-10T02:49:17;18.75;;;7.93;;
46507;SDS011;32223;53.654;10.014;2022-12-10T02:51:43;17.15;;;8.63;;
46507;SDS011;32223;53.654;10.014;2022-12-10T03:00:22;13.85;;;6.65;;
46507;SDS011;32223;53.654;10.014;2022-12-10T03:03:52;12.48;;;6.97;;
46507;SDS011;32223;53.654;10.014;2022-12-10T03:11:11;15.85;;;7.40;;
46507;SDS011;32223;53.654;10.014;2022-12-10T03:16:31;18.02;;;8.25;;
46507;SDS011;32223;53.654;10.014;2022-12-10T03:19:10;16.10;;;7.72;;
46507;SDS011;32223;53.654;10.014;2022-12-10T03:21:38;15.18;;;8.73;;
46507;SDS011;32223;53.654;10.014;2022-12-10T03:24:06;13.35;;;7.20;;
46507;SDS011;32223;53.654;10.014;2022-12-10T03:26:34;14.52;;;7.65;;
46507;SDS011;32223;53.654;10.014;2022-12-10T03:29:01;17.63;;;8.25;;
46507;SDS011;32223;53.654;10.014;2022-12-10T03:31:31;16.52;;;7.53;;
46507;SDS011;32223;53.654;10.014;2022-12-10T03:34:00;15.95;;;8.23;;
46507;SDS011;32223;53.654;10.014;2022-12-10T03:36:27;17.25;;;7.97;;
46507;SDS011;32223;53.654;10.014;2022-12-10T03:38:55;13.43;;;9.05;;
46507;SDS011;32223;53.654;10.014;2022-12-10T03:41:21;25.73;;;8.77;;
46507;SDS011;32223;53.654;10.014;2022-12-10T03:43:54;16.10;;;8.32;;
46507;SDS011;32223;53.654;10.014;2022-12-10T03:46:22;13.73;;;7.90;;
46507;SDS011;32223;53.654;10.014;2022-12-10T03:48:49;14.98;;;7.57;;
46507;SDS011;32223;53.654;10.014;2022-12-10T03:51:15;15.10;;;7.38;;
46507;SDS011;32223;53.654;10.014;2022-12-10T03:53:42;15.05;;;8.13;;
46507;SDS011;32223;53.654;10.014;2022-12-10T03:56:07;15.35;;;7.60;;
46507;SDS011;32223;53.654;10.014;2022-12-10T03:58:33;14.98;;;8.05;;
46507;SDS011;32223;53.654;10.014;2022-12-10T04:00:59;15.02;;;7.78;;
46507;SDS011;32223;53.654;10.014;2022-12-10T04:03:25;15.52;;;7.88;;
46507;SDS011;32223;53.654;10.014;2022-12-10T04:05:51;15.35;;;7.93;;
46507;SDS011;32223;53.654;10.014;2022-12-10T04:08:16;16.15;;;7.65;;
46507;SDS011;32223;53.654;10.014;2022-12-10T04:10:42;13.80;;;7.22;;
46507;SDS011;32223;53.654;10.014;2022-12-10T04:13:07;16.60;;;8.57;;
46507;SDS011;32223;53.654;10.014;2022-12-10T04:15:51;17.90;;;9.00;;
46507;SDS011;32223;53.654;10.014;2022-12-10T04:18:35;14.82;;;7.28;;
46507;SDS011;32223;53.654;10.014;2022-12-10T04:21:01;17.63;;;8.68;;
46507;SDS011;32223;53.654;10.014;2022-12-10T04:23:45;13.32;;;7.53;;
46507;SDS011;32223;53.654;10.014;2022-12-10T04:26:29;16.15;;;9.27;;
46507;SDS011;32223;53.654;10.014;2022-12-10T04:29:14;18.15;;;8.05;;
46507;SDS011;32223;53.654;10.014;2022-12-10T04:31:39;12.52;;;7.35;;
46507;SDS011;32223;53.654;10.014;2022-12-10T04:34:05;11.30;;;6.95;;
46507;SDS011;32223;53.654;10.014;2022-12-10T04:36:30;16.25;;;6.78;;
46507;SDS011;32223;53.654;10.014;2022-12-10T04:38:56;13.25;;;7.38;;
46507;SDS011;32223;53.654;10.014;2022-12-10T04:41:21;14.15;;;6.97;;
46507;SDS011;32223;53.654;10.014;2022-12-10T04:43:47;15.68;;;8.18;;
46507;SDS011;32223;53.654;10.014;2022-12-10T04:46:13;15.15;;;7.22;;
46507;SDS011;32223;53.654;10.014;2022-12-10T04:48:38;14.55;;;7.65;;
46507;SDS011;32223;53.654;10.014;2022-12-10T04:51:04;13.82;;;6.95;;
46507;SDS011;32223;53.654;10.014;2022-12-10T04:53:30;15.27;;;7.97;;
46507;SDS011;32223;53.654;10.014;2022-12-10T04:55:55;13.85;;;7.43;;
46507;SDS011;32223;53.654;10.014;2022-12-10T04:58:21;17.67;;;9.00;;
46507;SDS011;32223;53.654;10.014;2022-12-10T05:00:47;14.95;;;7.85;;
46507;SDS011;32223;53.654;10.014;2022-12-10T05:03:12;15.85;;;7.25;;
46507;SDS011;32223;53.654;10.014;2022-12-10T05:05:38;14.55;;;7.20;;
46507;SDS011;32223;53.654;10.014;2022-12-10T05:08:03;13.77;;;7.97;;
46507;SDS011;32223;53.654;10.014;2022-12-10T05:10:29;14.15;;;7.10;;
46507;SDS011;32223;53.654;10.014;2022-12-10T05:12:55;16.38;;;8.18;;
46507;SDS011;32223;53.654;10.014;2022-12-10T05:15:21;14.00;;;6.93;;
46507;SDS011;32223;53.654;10.014;2022-12-10T05:17:47;15.48;;;6.85;;
46507;SDS011;32223;53.654;10.014;2022-12-10T05:20:12;13.45;;;7.18;;
46507;SDS011;32223;53.654;10.014;2022-12-10T05:22:38;15.00;;;7.43;;
46507;SDS011;32223;53.654;10.014;2022-12-10T05:25:22;14.15;;;7.63;;
46507;SDS011;32223;53.654;10.014;2022-12-10T05:27:48;14.27;;;8.10;;
46507;SDS011;32223;53.654;10.014;2022-12-10T05:30:13;12.07;;;6.95;;
46507;SDS011;32223;53.654;10.014;2022-12-10T05:32:39;14.48;;;6.70;;
46507;SDS011;32223;53.654;10.014;2022-12-10T05:35:04;16.63;;;8.32;;
46507;SDS011;32223;53.654;10.014;2022-12-10T05:37:30;13.45;;;6.95;;
46507;SDS011;32223;53.654;10.014;2022-12-10T05:39:56;15.40;;;7.82;;
46507;SDS011;32223;53.654;10.014;2022-12-10T05:42:21;13.27;;;6.85;;
46507;SDS011;32223;53.654;10.014;2022-12-10T05:44:47;12.38;;;7.35;;
46507;SDS011;32223;53.654;10.014;2022-12-10T05:47:13;13.95;;;7.68;;
46507;SDS011;32223;53.654;10.014;2022-12-10T05:49:38;13.85;;;7.82;;
46507;SDS011;32223;53.654;10.014;2022-12-10T05:52:04;13.48;;;7.97;;
46507;SDS011;32223;53.654;10.014;2022-12-10T05:54:29;14.68;;;8.45;;
46507;SDS011;32223;53.654;10.014;2022-12-10T05:56:55;19.60;;;10.30;;
46507;SDS011;32223;53.654;10.014;2022-12-10T05:59:20;14.43;;;8.02;;
46507;SDS011;32223;53.654;10.014;2022-12-10T06:01:46;14.30;;;8.32;;
46507;SDS011;32223;53.654;10.014;2022-12-10T06:04:12;15.80;;;8.45;;
46507;SDS011;32223;53.654;10.014;2022-12-10T06:06:38;15.05;;;8.55;;
46507;SDS011;32223;53.654;10.014;2022-12-10T06:09:04;16.80;;;8.82;;
46507;SDS011;32223;53.654;10.014;2022-12-10T06:11:31;14.23;;;7.70;;
46507;SDS011;32223;53.654;10.014;2022-12-10T06:13:57;15.88;;;8.00;;
46507;SDS011;32223;53.654;10.014;2022-12-10T06:16:24;15.63;;;7.15;;
46507;SDS011;32223;53.654;10.014;2022-12-10T06:18:51;14.07;;;7.07;;
46507;SDS011;32223;53.654;10.014;2022-12-10T06:21:18;13.88;;;7.55;;
46507;SDS011;32223;53.654;10.014;2022-12-10T06:23:45;17.85;;;8.50;;
46507;SDS011;32223;53.654;10.014;2022-12-10T06:26:15;12.50;;;7.32;;
46507;SDS011;32223;53.654;10.014;2022-12-10T06:28:46;17.30;;;7.65;;
46507;SDS011;32223;53.654;10.014;2022-12-10T06:31:12;17.48;;;9.45;;
46507;SDS011;32223;53.654;10.014;2022-12-10T06:33:39;15.75;;;8.40;;
46507;SDS011;32223;53.654;10.014;2022-12-10T06:36:06;14.05;;;7.45;;
46507;SDS011;32223;53.654;10.014;2022-12-10T06:38:33;14.75;;;8.38;;
46507;SDS011;32223;53.654;10.014;2022-12-10T06:40:59;15.50;;;8.63;;
46507;SDS011;32223;53.654;10.014;2022-12-10T06:43:28;14.80;;;8.13;;
46507;SDS011;32223;53.654;10.014;2022-12-10T06:45:54;12.98;;;7.80;;
46507;SDS011;32223;53.654;10.014;2022-12-10T06:48:20;12.93;;;7.60;;
46507;SDS011;32223;53.654;10.014;2022-12-10T06:50:45;15.40;;;8.73;;
46507;SDS011;32223;53.654;10.014;2022-12-10T06:53:11;14.68;;;8.00;;
46507;SDS011;32223;53.654;10.014;2022-12-10T06:55:37;15.70;;;8.23;;
46507;SDS011;32223;53.654;10.014;2022-12-10T06:58:03;18.17;;;8.52;;
46507;SDS011;32223;53.654;10.014;2022-12-10T07:00:29;14.23;;;7.68;;
46507;SDS011;32223;53.654;10.014;2022-12-10T07:02:55;14.50;;;8.07;;
46507;SDS011;32223;53.654;10.014;2022-12-10T07:05:20;15.80;;;8.95;;
46507;SDS011;32223;53.654;10.014;2022-12-10T07:07:46;15.65;;;8.60;;
46507;SDS011;32223;53.654;10.014;2022-12-10T07:10:11;15.10;;;8.20;;
46507;SDS011;32223;53.654;10.014;2022-12-10T07:12:37;17.05;;;9.85;;
46507;SDS011;32223;53.654;10.014;2022-12-10T07:15:03;18.55;;;8.88;;
46507;SDS011;32223;53.654;10.014;2022-12-10T07:17:29;15.77;;;8.43;;
46507;SDS011;32223;53.654;10.014;2022-12-10T07:19:55;15.73;;;8.48;;
46507;SDS011;32223;53.654;10.014;2022-12-10T07:22:20;16.85;;;9.48;;
46507;SDS011;32223;53.654;10.014;2022-12-10T07:24:47;19.58;;;9.90;;
46507;SDS011;32223;53.654;10.014;2022-12-10T07:27:13;18.30;;;9.68;;
46507;SDS011;32223;53.654;10.014;2022-12-10T07:29:39;14.93;;;8.60;;
46507;SDS011;32223;53.654;10.014;2022-12-10T07:32:05;18.60;;;9.68;;
46507;SDS011;32223;53.654;10.014;2022-12-10T07:34:30;18.58;;;9.68;;
46507;SDS011;32223;53.654;10.014;2022-12-10T07:36:56;17.27;;;9.75;;
46507;SDS011;32223;53.654;10.014;2022-12-10T07:39:21;19.35;;;10.27;;
46507;SDS011;32223;53.654;10.014;2022-12-10T07:41:48;23.33;;;12.88;;
46507;SDS011;32223;53.654;10.014;2022-12-10T07:44:16;16.23;;;9.88;;
46507;SDS011;32223;53.654;10.014;2022-12-10T07:46:43;18.60;;;9.27;;
46507;SDS011;32223;53.654;10.014;2022-12-10T07:49:09;18.17;;;9.27;;
46507;SDS011;32223;53.654;10.014;2022-12-10T07:51:35;19.35;;;9.23;;
46507;SDS011;32223;53.654;10.014;2022-12-10T07:54:01;17.20;;;8.30;;
46507;SDS011;32223;53.654;10.014;2022-12-10T07:56:26;17.42;;;9.13;;
46507;SDS011;32223;53.654;10.014;2022-12-10T07:58:52;17.33;;;8.63;;
46507;SDS011;32223;53.654;10.014;2022-12-10T08:01:22;16.10;;;8.23;;
46507;SDS011;32223;53.654;10.014;2022-12-10T08:03:50;16.45;;;7.82;;
46507;SDS011;32223;53.654;10.014;2022-12-10T08:06:17;17.83;;;8.82;;
46507;SDS011;32223;53.654;10.014;2022-12-10T08:08:44;15.15;;;8.80;;
46507;SDS011;32223;53.654;10.014;2022-12-10T08:11:11;16.98;;;8.27;;
46507;SDS011;32223;53.654;10.014;2022-12-10T08:13:37;17.25;;;9.35;;
46507;SDS011;32223;53.654;10.014;2022-12-10T08:16:11;14.65;;;8.55;;
46507;SDS011;32223;53.654;10.014;2022-12-10T08:18:41;14.13;;;8.15;;
46507;SDS011;32223;53.654;10.014;2022-12-10T08:21:08;12.98;;;7.35;;
46507;SDS011;32223;53.654;10.014;2022-12-10T08:23:42;11.80;;;7.05;;
46507;SDS011;32223;53.654;10.014;2022-12-10T08:26:12;12.25;;;7.47;;
46507;SDS011;32223;53.654;10.014;2022-12-10T08:28:43;12.17;;;6.50;;
46507;SDS011;32223;53.654;10.014;2022-12-10T08:31:09;14.00;;;7.90;;
46507;SDS011;32223;53.654;10.014;2022-12-10T08:33:36;11.18;;;6.95;;
46507;SDS011;32223;53.654;10.014;2022-12-10T08:36:03;13.02;;;6.82;;
46507;SDS011;32223;53.654;10.014;2022-12-10T08:38:30;12.27;;;6.95;;
46507;SDS011;32223;53.654;10.014;2022-12-10T08:40:56;10.57;;;7.10;;
46507;SDS011;32223;53.654;10.014;2022-12-10T08:43:21;12.40;;;6.60;;
46507;SDS011;32223;53.654;10.014;2022-12-10T08:45:47;13.63;;;6.25;;
46507;SDS011;32223;53.654;10.014;2022-12-10T08:48:13;12.63;;;6.30;;
46507;SDS011;32223;53.654;10.014;2022-12-10T08:50:38;11.45;;;5.90;;
46507;SDS011;32223;53.654;10.014;2022-12-10T08:53:04;11.95;;;6.45;;
46507;SDS011;32223;53.654;10.014;2022-12-10T08:55:30;11.85;;;5.85;;
46507;SDS011;32223;53.654;10.014;2022-12-10T08:57:56;14.40;;;6.78;;
46507;SDS011;32223;53.654;10.014;2022-12-10T09:00:22;12.98;;;6.68;;
46507;SDS011;32223;53.654;10.014;2022-12-10T09:02:49;12.35;;;6.82;;
46507;SDS011;32223;53.654;10.014;2022-12-10T09:05:15;14.95;;;7.60;;
46507;SDS011;32223;53.654;10.014;2022-12-10T09:07:40;13.68;;;7.30;;
46507;SDS011;32223;53.654;10.014;2022-12-10T09:10:06;11.15;;;6.88;;
46507;SDS011;32223;53.654;10.014;2022-12-10T09:12:34;12.15;;;7.28;;
46507;SDS011;32223;53.654;10.014;2022-12-10T09:14:59;9.70;;;6.10;;
46507;SDS011;32223;53.654;10.014;2022-12-10T09:17:25;13.85;;;8.27;;
46507;SDS011;32223;53.654;10.014;2022-12-10T09:19:50;14.57;;;7.72;;
46507;SDS011;32223;53.654;10.014;2022-12-10T09:22:16;14.18;;;7.60;;
46507;SDS011;32223;53.654;10.014;2022-12-10T09:24:42;13.45;;;8.30;;
46507;SDS011;32223;53.654;10.014;2022-12-10T09:27:07;12.13;;;7.20;;
46507;SDS011;32223;53.654;10.014;2022-12-10T09:29:33;12.30;;;7.90;;
46507;SDS011;32223;53.654;10.014;2022-12-10T09:31:58;10.43;;;6.30;;
46507;SDS011;32223;53.654;10.014;2022-12-10T09:34:24;10.65;;;6.22;;
46507;SDS011;32223;53.654;10.014;2022-12-10T09:36:49;11.70;;;5.63;;
46507;SDS011;32223;53.654;10.014;2022-12-10T09:39:15;13.63;;;7.45;;
46507;SDS011;32223;53.654;10.014;2022-12-10T09:41:56;11.23;;;6.82;;
46507;SDS011;32223;53.654;10.014;2022-12-10T09:44:46;13.00;;;6.65;;
46507;SDS011;32223;53.654;10.014;2022-12-10T09:47:18;9.98;;;6.72;;
46507;SDS011;32223;53.654;10.014;2022-12-10T09:49:52;14.43;;;6.93;;
46507;SDS011;32223;53.654;10.014;2022-12-10T09:52:39;11.90;;;6.00;;
46507;SDS011;32223;53.654;10.014;2022-12-10T09:55:13;12.52;;;6.82;;
46507;SDS011;32223;53.654;10.014;2022-12-10T09:57:43;12.55;;;5.65;;
46507;SDS011;32223;53.654;10.014;2022-12-10T10:00:29;11.55;;;6.28;;
46507;SDS011;32223;53.654;10.014;2022-12-10T10:02:56;10.18;;;6.00;;
46507;SDS011;32223;53.654;10.014;2022-12-10T10:05:28;13.50;;;7.18;;
46507;SDS011;32223;53.654;10.014;2022-12-10T10:08:04;11.55;;;6.63;;
46507;SDS011;32223;53.654;10.014;2022-12-10T10:10:37;15.95;;;7.57;;
46507;SDS011;32223;53.654;10.014;2022-12-10T10:15:33;14.93;;;7.30;;
46507;SDS011;32223;53.654;10.014;2022-12-10T10:18:02;14.55;;;7.05;;
46507;SDS011;32223;53.654;10.014;2022-12-10T10:20:38;13.77;;;8.07;;
46507;SDS011;32223;53.654;10.014;2022-12-10T10:23:04;13.20;;;6.93;;
46507;SDS011;32223;53.654;10.014;2022-12-10T10:25:30;13.60;;;7.25;;
46507;SDS011;32223;53.654;10.014;2022-12-10T10:27:56;15.45;;;7.35;;
46507;SDS011;32223;53.654;10.014;2022-12-10T10:30:22;13.20;;;7.20;;
46507;SDS011;32223;53.654;10.014;2022-12-10T10:32:53;17.83;;;8.40;;
46507;SDS011;32223;53.654;10.014;2022-12-10T10:37:58;11.63;;;5.97;;
46507;SDS011;32223;53.654;10.014;2022-12-10T10:40:40;13.40;;;6.78;;
46507;SDS011;32223;53.654;10.014;2022-12-10T10:43:15;11.75;;;6.22;;
46507;SDS011;32223;53.654;10.014;2022-12-10T10:45:58;10.07;;;5.65;;
46507;SDS011;32223;53.654;10.014;2022-12-10T10:48:27;10.02;;;5.55;;
46507;SDS011;32223;53.654;10.014;2022-12-10T10:50:55;11.00;;;6.47;;
46507;SDS011;32223;53.654;10.014;2022-12-10T10:56:14;11.27;;;6.10;;
46507;SDS011;32223;53.654;10.014;2022-12-10T10:58:45;12.48;;;5.85;;
46507;SDS011;32223;53.654;10.014;2022-12-10T11:01:15;10.70;;;6.25;;
46507;SDS011;32223;53.654;10.014;2022-12-10T11:03:45;13.10;;;6.93;;
46507;SDS011;32223;53.654;10.014;2022-12-10T11:06:18;10.27;;;6.55;;
46507;SDS011;32223;53.654;10.014;2022-12-10T11:08:45;12.10;;;6.65;;
46507;SDS011;32223;53.654;10.014;2022-12-10T11:11:31;9.02;;;5.20;;
46507;SDS011;32223;53.654;10.014;2022-12-10T11:14:13;10.63;;;6.40;;
46507;SDS011;32223;53.654;10.014;2022-12-10T11:16:39;12.93;;;7.70;;
46507;SDS011;32223;53.654;10.014;2022-12-10T11:19:05;12.43;;;5.82;;
46507;SDS011;32223;53.654;10.014;2022-12-10T11:21:44;11.00;;;6.28;;
46507;SDS011;32223;53.654;10.014;2022-12-10T11:24:11;11.88;;;6.95;;
46507;SDS011;32223;53.654;10.014;2022-12-10T11:26:46;10.68;;;5.90;;
46507;SDS011;32223;53.654;10.014;2022-12-10T11:41:09;11.23;;;6.20;;
46507;SDS011;32223;53.654;10.014;2022-12-10T11:44:16;10.65;;;5.85;;
46507;SDS011;32223;53.654;10.014;2022-12-10T11:47:18;9.77;;;5.72;;
46507;SDS011;32223;53.654;10.014;2022-12-10T11:50:02;10.85;;;6.15;;
46507;SDS011;32223;53.654;10.014;2022-12-10T11:52:52;14.80;;;6.82;;
46507;SDS011;32223;53.654;10.014;2022-12-10T11:55:38;11.18;;;6.10;;
46507;SDS011;32223;53.654;10.014;2022-12-10T12:00:52;11.63;;;5.75;;
46507;SDS011;32223;53.654;10.014;2022-12-10T12:06:17;11.02;;;6.55;;
46507;SDS011;32223;53.654;10.014;2022-12-10T12:08:55;10.10;;;6.45;;
46507;SDS011;32223;53.654;10.014;2022-12-10T12:14:10;10.20;;;5.88;;
46507;SDS011;32223;53.654;10.014;2022-12-10T12:17:00;8.85;;;5.10;;
46507;SDS011;32223;53.654;10.014;2022-12-10T12:19:39;7.45;;;5.00;;
46507;SDS011;32223;53.654;10.014;2022-12-10T12:22:20;9.07;;;4.82;;
46507;SDS011;32223;53.654;10.014;2022-12-10T12:24:53;9.15;;;5.22;;
46507;SDS011;32223;53.654;10.014;2022-12-10T12:35:19;9.63;;;4.90;;
46507;SDS011;32223;53.654;10.014;2022-12-10T12:37:50;10.18;;;5.65;;
46507;SDS011;32223;53.654;10.014;2022-12-10T12:42:59;17.10;;;7.80;;
46507;SDS011;32223;53.654;10.014;2022-12-10T12:45:36;9.63;;;5.20;;
46507;SDS011;32223;53.654;10.014;2022-12-10T12:48:16;9.40;;;4.90;;
46507;SDS011;32223;53.654;10.014;2022-12-10T12:50:59;11.52;;;6.25;;
46507;SDS011;32223;53.654;10.014;2022-12-10T12:53:31;9.68;;;5.75;;
46507;SDS011;32223;53.654;10.014;2022-12-10T12:58:34;10.20;;;5.55;;
46507;SDS011;32223;53.654;10.014;2022-12-10T13:01:08;9.77;;;5.55;;
46507;SDS011;32223;53.654;10.014;2022-12-10T13:03:44;14.55;;;6.22;;
46507;SDS011;32223;53.654;10.014;2022-12-10T13:11:36;9.07;;;5.22;;
46507;SDS011;32223;53.654;10.014;2022-12-10T13:19:16;9.32;;;4.88;;
46507;SDS011;32223;53.654;10.014;2022-12-10T13:49:18;11.88;;;6.95;;
46507;SDS011;32223;53.654;10.014;2022-12-10T13:51:55;11.23;;;6.60;;
46507;SDS011;32223;53.654;10.014;2022-12-10T13:57:22;13.70;;;7.65;;
46507;SDS011;32223;53.654;10.014;2022-12-10T14:03:30;10.38;;;6.90;;
46507;SDS011;32223;53.654;10.014;2022-12-10T14:08:38;11.50;;;6.85;;
46507;SDS011;32223;53.654;10.014;2022-12-10T14:11:16;13.02;;;6.80;;
46507;SDS011;32223;53.654;10.014;2022-12-10T14:13:52;11.55;;;6.43;;
46507;SDS011;32223;53.654;10.014;2022-12-10T14:16:22;9.68;;;5.97;;
46507;SDS011;32223;53.654;10.014;2022-12-10T14:18:53;12.02;;;6.72;;
46507;SDS011;32223;53.654;10.014;2022-12-10T14:21:24;9.88;;;5.82;;
46507;SDS011;32223;53.654;10.014;2022-12-10T14:23:51;10.05;;;5.50;;
46507;SDS011;32223;53.654;10.014;2022-12-10T14:28:49;9.20;;;5.82;;
46507;SDS011;32223;53.654;10.014;2022-12-10T14:31:28;8.90;;;5.53;;
46507;SDS011;32223;53.654;10.014;2022-12-10T14:34:08;10.88;;;6.07;;
46507;SDS011;32223;53.654;10.014;2022-12-10T14:36:39;9.50;;;6.05;;
46507;SDS011;32223;53.654;10.014;2022-12-10T14:39:14;12.27;;;6.50;;
46507;SDS011;32223;53.654;10.014;2022-12-10T14:41:43;9.73;;;5.80;;
46507;SDS011;32223;53.654;10.014;2022-12-10T14:44:11;11.18;;;6.10;;
46507;SDS011;32223;53.654;10.014;2022-12-10T14:46:40;12.27;;;6.90;;
46507;SDS011;32223;53.654;10.014;2022-12-10T14:49:07;13.85;;;7.07;;
46507;SDS011;32223;53.654;10.014;2022-12-10T14:51:48;13.77;;;7.00;;
46507;SDS011;32223;53.654;10.014;2022-12-10T14:57:07;10.60;;;5.55;;
46507;SDS011;32223;53.654;10.014;2022-12-10T14:59:40;9.77;;;5.93;;
46507;SDS011;32223;53.654;10.014;2022-12-10T15:02:12;10.43;;;6.00;;
46507;SDS011;32223;53.654;10.014;2022-12-10T15:04:45;10.87;;;7.03;;
46507;SDS011;32223;53.654;10.014;2022-12-10T15:07:22;14.02;;;7.40;;
46507;SDS011;32223;53.654;10.014;2022-12-10T15:09:50;12.70;;;6.65;;
46507;SDS011;32223;53.654;10.014;2022-12-10T15:12:59;15.65;;;7.05;;
46507;SDS011;32223;53.654;10.014;2022-12-10T15:17:42;14.93;;;7.30;;
46507;SDS011;32223;53.654;10.014;2022-12-10T15:23:05;17.48;;;8.07;;
46507;SDS011;32223;53.654;10.014;2022-12-10T15:26:04;17.67;;;8.68;;
46507;SDS011;32223;53.654;10.014;2022-12-10T15:28:36;16.92;;;9.13;;
46507;SDS011;32223;53.654;10.014;2022-12-10T15:31:22;15.43;;;9.35;;
46507;SDS011;32223;53.654;10.014;2022-12-10T15:33:56;14.02;;;8.70;;
46507;SDS011;32223;53.654;10.014;2022-12-10T15:36:40;15.88;;;9.13;;
46507;SDS011;32223;53.654;10.014;2022-12-10T15:41:40;16.17;;;8.98;;
46507;SDS011;32223;53.654;10.014;2022-12-10T15:44:18;14.57;;;8.00;;
46507;SDS011;32223;53.654;10.014;2022-12-10T15:49:30;17.98;;;9.43;;
46507;SDS011;32223;53.654;10.014;2022-12-10T15:51:56;17.88;;;8.90;;
46507;SDS011;32223;53.654;10.014;2022-12-10T15:54:41;18.48;;;9.70;;
46507;SDS011;32223;53.654;10.014;2022-12-10T15:57:11;14.00;;;7.05;;
46507;SDS011;32223;53.654;10.014;2022-12-10T15:59:37;15.18;;;8.60;;
46507;SDS011;32223;53.654;10.014;2022-12-10T16:02:03;17.63;;;8.45;;
46507;SDS011;32223;53.654;10.014;2022-12-10T16:04:48;16.60;;;7.67;;
46507;SDS011;32223;53.654;10.014;2022-12-10T16:07:14;18.35;;;9.02;;
46507;SDS011;32223;53.654;10.014;2022-12-10T16:09:41;16.23;;;7.68;;
46507;SDS011;32223;53.654;10.014;2022-12-10T16:12:07;16.60;;;7.90;;
46507;SDS011;32223;53.654;10.014;2022-12-10T16:14:36;19.55;;;9.32;;
46507;SDS011;32223;53.654;10.014;2022-12-10T16:17:01;18.25;;;8.35;;
46507;SDS011;32223;53.654;10.014;2022-12-10T16:19:27;21.75;;;9.57;;
46507;SDS011;32223;53.654;10.014;2022-12-10T16:21:53;15.70;;;7.95;;
46507;SDS011;32223;53.654;10.014;2022-12-10T16:24:19;16.17;;;8.65;;
46507;SDS011;32223;53.654;10.014;2022-12-10T16:26:45;17.42;;;7.63;;
46507;SDS011;32223;53.654;10.014;2022-12-10T16:29:10;24.60;;;10.77;;
46507;SDS011;32223;53.654;10.014;2022-12-10T16:31:36;21.77;;;10.95;;
46507;SDS011;32223;53.654;10.014;2022-12-10T16:34:01;21.50;;;8.70;;
46507;SDS011;32223;53.654;10.014;2022-12-10T16:36:27;19.73;;;8.75;;
46507;SDS011;32223;53.654;10.014;2022-12-10T16:38:53;18.60;;;8.20;;
46507;SDS011;32223;53.654;10.014;2022-12-10T16:41:21;21.83;;;8.55;;
46507;SDS011;32223;53.654;10.014;2022-12-10T16:43:48;16.90;;;8.32;;
46507;SDS011;32223;53.654;10.014;2022-12-10T16:46:20;16.52;;;8.77;;
46507;SDS011;32223;53.654;10.014;2022-12-10T16:48:46;18.35;;;9.02;;
46507;SDS011;32223;53.654;10.014;2022-12-10T16:51:15;22.50;;;9.52;;
46507;SDS011;32223;53.654;10.014;2022-12-10T16:53:54;19.52;;;9.35;;